createdAt,value
2018-07-20T00:00:53.443Z,99826.88
2018-07-20T00:03:21.949Z,99826.56
2018-07-20T00:05:50.406Z,99827.58
2018-07-20T00:08:18.984Z,99822.59
2018-07-20T00:10:47.437Z,99824.17
2018-07-20T00:13:15.999Z,99817.58
2018-07-20T00:15:44.560Z,99814.67
2018-07-20T00:18:13.159Z,99814.67
2018-07-20T00:20:41.737Z,99808.19
2018-07-20T00:23:10.269Z,99807.88
2018-07-20T00:25:38.758Z,99806.02
2018-07-20T00:28:07.280Z,99799.53
2018-07-20T00:30:35.797Z,99808.57
2018-07-20T00:33:04.307Z,99803.73
2018-07-20T00:35:32.734Z,99803.41
2018-07-20T00:38:01.294Z,99804.42
2018-07-20T00:40:29.798Z,99796.44
2018-07-20T00:42:58.334Z,99796.54
2018-07-20T00:45:26.829Z,99793.95
2018-07-20T00:47:55.314Z,99793.17
2018-07-20T00:50:23.840Z,99783.92
2018-07-20T00:52:52.356Z,99789.80
2018-07-20T00:55:20.807Z,99786.83
2018-07-20T00:57:49.333Z,99789.66
2018-07-20T01:00:17.837Z,99789.34
2018-07-20T01:02:46.393Z,99786.84
2018-07-20T01:05:14.856Z,99780.75
2018-07-20T01:07:43.388Z,99783.55
2018-07-20T01:10:11.904Z,99784.56
2018-07-20T01:12:40.479Z,99782.62
2018-07-20T01:15:08.964Z,99789.44
2018-07-20T01:17:37.573Z,99783.02
2018-07-20T01:20:06.871Z,99788.09
2018-07-20T01:22:35.359Z,99788.31
2018-07-20T01:25:03.908Z,99794.52
2018-07-20T01:27:32.446Z,99788.55
2018-07-20T01:30:00.952Z,99786.50
2018-07-20T01:32:29.423Z,99784.95
2018-07-20T01:34:57.932Z,99788.29
2018-07-20T01:37:26.376Z,99789.78
2018-07-20T01:39:54.875Z,99787.32
2018-07-20T01:42:23.448Z,99786.15
2018-07-20T01:44:51.947Z,99780.50
2018-07-20T01:47:20.420Z,99785.83
2018-07-20T01:49:48.972Z,99783.23
2018-07-20T01:52:17.510Z,99781.61
2018-07-20T01:54:46.004Z,99785.11
2018-07-20T01:57:14.545Z,99777.69
2018-07-20T01:59:43.091Z,99784.39
2018-07-20T02:02:11.632Z,99781.41
2018-07-20T02:04:40.236Z,99773.66
2018-07-20T02:07:08.819Z,99777.80
2018-07-20T02:09:37.361Z,99793.81
2018-07-20T02:12:12.251Z,99778.80
2018-07-20T02:14:40.863Z,99774.91
2018-07-20T02:17:09.517Z,99775.37
2018-07-20T02:19:38.020Z,99775.92
2018-07-20T02:22:06.927Z,99773.26
2018-07-20T02:24:35.528Z,99769.43
2018-07-20T02:27:04.101Z,99661.27
2018-07-20T02:29:32.815Z,99769.49
2018-07-20T02:32:01.313Z,99771.77
2018-07-20T02:34:29.920Z,99762.13
2018-07-20T02:36:58.453Z,99767.93
2018-07-20T02:39:27.086Z,99760.95
2018-07-20T02:41:55.665Z,99761.08
2018-07-20T02:44:24.238Z,99761.73
2018-07-20T02:46:52.723Z,99763.12
2018-07-20T02:49:21.272Z,99761.95
2018-07-20T02:51:49.775Z,99762.84
2018-07-20T02:54:18.331Z,99758.17
2018-07-20T02:56:46.867Z,99759.17
2018-07-20T02:59:15.449Z,99757.52
2018-07-20T03:01:43.971Z,99758.13
2018-07-20T03:04:12.721Z,99759.45
2018-07-20T03:06:41.251Z,99762.20
2018-07-20T03:09:11.850Z,99760.54
2018-07-20T03:11:40.411Z,99756.17
2018-07-20T03:14:09.011Z,99752.78
2018-07-20T03:16:37.610Z,99746.33
2018-07-20T03:19:06.403Z,99748.20
2018-07-20T03:21:35.034Z,99747.14
2018-07-20T03:24:03.640Z,99749.95
2018-07-20T03:26:32.136Z,99749.08
2018-07-20T03:29:00.657Z,99749.56
2018-07-20T03:31:29.159Z,99743.38
2018-07-20T03:33:57.666Z,99744.25
2018-07-20T03:36:26.181Z,99741.17
2018-07-20T03:38:54.780Z,99743.83
2018-07-20T03:41:23.384Z,99742.98
2018-07-20T03:43:51.977Z,99739.15
2018-07-20T03:46:20.558Z,99732.96
2018-07-20T03:48:49.082Z,99735.23
2018-07-20T03:51:17.666Z,99728.20
2018-07-20T03:53:46.170Z,99726.87
2018-07-20T03:56:14.769Z,99724.66
2018-07-20T03:58:43.386Z,99726.39
2018-07-20T04:01:12.087Z,99726.33
2018-07-20T04:03:40.809Z,99727.05
2018-07-20T04:06:09.344Z,99723.40
2018-07-20T04:08:37.885Z,99736.13
2018-07-20T04:11:06.429Z,99712.63
2018-07-20T04:13:34.919Z,99712.08
2018-07-20T04:16:03.542Z,99711.92
2018-07-20T04:18:32.073Z,99713.67
2018-07-20T04:21:00.635Z,99713.02
2018-07-20T04:23:29.524Z,99715.43
2018-07-20T04:25:58.968Z,99713.77
2018-07-20T04:28:27.453Z,99715.95
2018-07-20T04:30:56.020Z,99719.02
2018-07-20T04:33:24.531Z,99719.41
2018-07-20T04:35:53.152Z,99718.66
2018-07-20T04:38:21.868Z,99710.47
2018-07-20T04:40:50.356Z,99715.05
2018-07-20T04:43:18.944Z,99711.63
2018-07-20T04:45:47.618Z,99711.57
2018-07-20T04:48:16.164Z,99708.36
2018-07-20T04:50:44.809Z,99710.34
2018-07-20T04:53:13.351Z,99707.14
2018-07-20T04:55:41.916Z,99711.45
2018-07-20T04:58:10.489Z,99709.41
2018-07-20T05:00:39.039Z,99710.64
2018-07-20T05:03:08.089Z,99707.98
2018-07-20T05:05:36.746Z,99704.27
2018-07-20T05:08:05.254Z,99703.17
2018-07-20T05:10:33.835Z,99701.78
2018-07-20T05:13:02.823Z,99704.14
2018-07-20T05:15:31.345Z,99695.23
2018-07-20T05:17:59.928Z,99690.14
2018-07-20T05:20:28.492Z,99692.80
2018-07-20T05:22:57.048Z,99680.61
2018-07-20T05:25:25.702Z,99686.32
2018-07-20T05:27:54.273Z,99689.23
2018-07-20T05:30:22.822Z,99686.97
2018-07-20T05:32:51.349Z,99689.55
2018-07-20T05:35:19.848Z,99689.64
2018-07-20T05:37:48.417Z,99686.94
2018-07-20T05:40:16.966Z,99687.86
2018-07-20T05:42:45.522Z,99685.67
2018-07-20T05:45:14.018Z,99685.20
2018-07-20T05:47:42.530Z,99691.37
2018-07-20T05:50:11.068Z,99690.08
2018-07-20T05:52:39.652Z,99690.88
2018-07-20T05:55:08.285Z,99687.11
2018-07-20T05:57:36.807Z,99692.89
2018-07-20T06:00:05.962Z,99686.48
2018-07-20T06:02:40.581Z,99689.87
2018-07-20T06:05:09.123Z,99690.52
2018-07-20T06:07:37.619Z,99679.88
2018-07-20T06:10:06.094Z,99683.17
2018-07-20T06:12:34.685Z,99685.03
2018-07-20T06:15:03.226Z,99681.62
2018-07-20T06:17:31.818Z,99685.29
2018-07-20T06:20:00.326Z,99689.73
2018-07-20T06:22:29.029Z,99687.34
2018-07-20T06:24:57.820Z,99681.06
2018-07-20T06:27:26.672Z,99694.30
2018-07-20T06:29:55.236Z,99687.66
2018-07-20T06:32:23.751Z,99685.74
2018-07-20T06:34:52.473Z,99691.62
2018-07-20T06:37:21.150Z,99687.34
2018-07-20T06:39:49.800Z,99682.66
2018-07-20T06:42:18.426Z,99687.59
2018-07-20T06:44:46.995Z,99686.58
2018-07-20T06:47:15.682Z,99686.17
2018-07-20T06:49:44.376Z,99692.00
2018-07-20T06:52:13.059Z,99687.06
2018-07-20T06:54:42.406Z,99686.75
2018-07-20T06:57:11.381Z,99682.14
2018-07-20T06:59:40.016Z,99682.78
2018-07-20T07:02:08.594Z,99684.26
2018-07-20T07:04:37.678Z,99684.29
2018-07-20T07:07:07.119Z,99680.39
2018-07-20T07:09:35.676Z,99679.67
2018-07-20T07:12:04.340Z,99616.02
2018-07-20T07:14:33.010Z,99680.80
2018-07-20T07:17:01.633Z,99688.58
2018-07-20T07:19:30.316Z,99683.02
2018-07-20T07:21:59.193Z,99678.99
2018-07-20T07:24:27.855Z,99679.82
2018-07-20T07:26:56.440Z,99681.83
2018-07-20T07:29:25.004Z,99680.23
2018-07-20T07:31:53.528Z,99683.16
2018-07-20T07:34:22.159Z,99680.30
2018-07-20T07:36:50.815Z,99674.70
2018-07-20T07:39:19.785Z,99677.72
2018-07-20T07:41:48.481Z,99681.55
2018-07-20T07:44:17.045Z,99674.30
2018-07-20T07:46:45.797Z,99670.93
2018-07-20T07:49:14.642Z,99675.23
2018-07-20T07:51:43.474Z,99672.45
2018-07-20T07:54:12.089Z,99672.22
2018-07-20T07:56:40.694Z,99677.26
2018-07-20T07:59:09.327Z,99675.58
2018-07-20T08:01:38.052Z,99670.27
2018-07-20T08:04:07.592Z,99675.28
2018-07-20T08:06:36.193Z,99677.00
2018-07-20T08:09:08.713Z,99672.80
2018-07-20T08:11:37.760Z,99674.01
2018-07-20T08:14:06.344Z,99675.93
2018-07-20T08:16:34.947Z,99672.64
2018-07-20T08:19:03.547Z,99669.10
2018-07-20T08:21:32.177Z,99673.20
2018-07-20T08:24:00.736Z,99672.27
2018-07-20T08:26:29.306Z,99666.22
2018-07-20T08:28:57.842Z,99672.00
2018-07-20T08:31:26.475Z,99662.70
2018-07-20T08:33:55.060Z,99660.53
2018-07-20T08:36:23.707Z,99662.81
2018-07-20T08:38:52.318Z,99664.62
2018-07-20T08:41:21.192Z,99651.95
2018-07-20T08:43:49.843Z,99651.81
2018-07-20T08:46:18.659Z,99653.91
2018-07-20T08:48:47.283Z,99655.58
2018-07-20T08:51:15.873Z,99654.53
2018-07-20T08:53:44.516Z,99654.48
2018-07-20T08:56:13.026Z,99661.48
2018-07-20T08:58:41.635Z,99656.91
2018-07-20T09:01:10.675Z,99651.13
2018-07-20T09:03:39.303Z,99645.91
2018-07-20T09:06:07.937Z,99646.98
2018-07-20T09:08:36.511Z,99647.44
2018-07-20T09:11:05.163Z,99652.27
2018-07-20T09:13:33.664Z,99643.43
2018-07-20T09:16:02.176Z,99642.37
2018-07-20T09:18:30.721Z,99637.56
2018-07-20T09:20:59.284Z,99642.05
2018-07-20T09:23:27.830Z,99638.01
2018-07-20T09:25:56.633Z,99635.08
2018-07-20T09:28:25.245Z,99637.93
2018-07-20T09:30:53.670Z,99629.49
2018-07-20T09:33:22.195Z,99631.45
2018-07-20T09:35:50.940Z,99635.81
2018-07-20T09:38:19.470Z,99629.81
2018-07-20T09:40:48.054Z,99635.05
2018-07-20T09:43:16.614Z,99631.73
2018-07-20T09:45:45.321Z,99630.41
2018-07-20T09:48:13.912Z,99631.22
2018-07-20T09:50:42.526Z,99636.97
2018-07-20T09:53:11.198Z,99634.53
2018-07-20T09:55:39.750Z,99627.90
2018-07-20T09:58:08.356Z,99625.93
2018-07-20T10:00:42.856Z,99620.72
2018-07-20T10:03:11.625Z,99625.55
2018-07-20T10:05:40.247Z,99625.20
2018-07-20T10:08:08.990Z,99620.37
2018-07-20T10:10:37.596Z,99617.15
2018-07-20T10:13:06.205Z,99617.20
2018-07-20T10:15:34.706Z,99621.06
2018-07-20T10:18:03.257Z,99614.73
2018-07-20T10:20:31.717Z,99618.87
2018-07-20T10:23:00.427Z,99615.02
2018-07-20T10:25:29.024Z,99608.24
2018-07-20T10:27:57.621Z,99606.27
2018-07-20T10:30:26.243Z,99603.63
2018-07-20T10:32:54.877Z,99613.66
2018-07-20T10:35:23.487Z,99604.08
2018-07-20T10:37:52.100Z,99604.63
2018-07-20T10:40:22.188Z,99601.05
2018-07-20T10:42:50.825Z,99607.05
2018-07-20T10:45:19.439Z,99602.25
2018-07-20T10:47:48.309Z,99597.64
2018-07-20T10:50:16.876Z,99596.39
2018-07-20T10:52:45.395Z,99604.81
2018-07-20T10:55:14.094Z,99600.09
2018-07-20T10:57:42.668Z,99599.05
2018-07-20T11:00:11.219Z,99599.66
2018-07-20T11:02:39.726Z,99595.38
2018-07-20T11:05:08.296Z,99594.31
2018-07-20T11:07:36.782Z,99595.06
2018-07-20T11:10:05.645Z,99590.58
2018-07-20T11:12:34.131Z,99588.42
2018-07-20T11:15:02.612Z,99586.43
2018-07-20T11:17:31.047Z,99577.79
2018-07-20T11:19:59.816Z,99579.78
2018-07-20T11:22:28.322Z,99571.98
2018-07-20T11:24:56.873Z,99563.79
2018-07-20T11:27:25.426Z,99565.16
2018-07-20T11:29:54.091Z,99566.70
2018-07-20T11:32:22.642Z,99556.88
2018-07-20T11:34:51.226Z,99557.66
2018-07-20T11:37:19.748Z,99552.93
2018-07-20T11:39:48.280Z,99565.79
2018-07-20T11:42:16.784Z,99551.73
2018-07-20T11:44:45.337Z,99552.03
2018-07-20T11:47:13.888Z,99549.26
2018-07-20T11:49:42.455Z,99558.33
2018-07-20T11:52:11.380Z,99547.64
2018-07-20T11:54:39.964Z,99546.84
2018-07-20T11:57:08.526Z,99540.35
2018-07-20T11:59:37.207Z,99530.77
2018-07-20T12:02:05.714Z,99533.08
2018-07-20T12:04:34.248Z,99545.39
2018-07-20T12:07:02.877Z,99535.98
2018-07-20T12:09:31.474Z,99532.83
2018-07-20T12:12:00.286Z,99537.05
2018-07-20T12:14:28.836Z,99531.61
2018-07-20T12:16:57.407Z,99538.50
2018-07-20T12:19:25.983Z,99529.17
2018-07-20T12:21:54.626Z,99522.72
2018-07-20T12:24:23.188Z,99520.44
2018-07-20T12:26:51.712Z,99521.09
2018-07-20T12:29:20.933Z,99511.61
2018-07-20T12:31:49.564Z,99509.26
2018-07-20T12:34:18.225Z,99513.58
2018-07-20T12:36:46.786Z,99497.98
2018-07-20T12:39:15.361Z,99510.20
2018-07-20T12:41:43.877Z,99498.46
2018-07-20T12:44:12.410Z,99502.88
2018-07-20T12:46:40.971Z,99500.00
2018-07-20T12:49:09.773Z,99494.55
2018-07-20T12:51:38.543Z,99485.75
2018-07-20T12:54:07.164Z,99482.73
2018-07-20T12:56:35.762Z,99483.56
2018-07-20T12:59:04.342Z,99476.34
2018-07-20T13:01:33.294Z,99474.36
2018-07-20T13:04:04.858Z,99468.26
2018-07-20T13:06:33.681Z,99470.01
2018-07-20T13:09:02.347Z,99479.91
2018-07-20T13:11:30.957Z,99470.36
2018-07-20T13:13:59.714Z,99473.77
2018-07-20T13:16:28.308Z,99470.52
2018-07-20T13:18:56.828Z,99473.80
2018-07-20T13:21:25.455Z,99467.37
2018-07-20T13:23:54.189Z,99467.37
2018-07-20T13:26:22.863Z,99470.43
2018-07-20T13:28:51.364Z,99464.86
2018-07-20T13:31:20.194Z,99471.19
2018-07-20T13:33:49.224Z,99366.73
2018-07-20T13:36:17.759Z,99465.01
2018-07-20T13:38:47.281Z,99465.36
2018-07-20T13:41:15.854Z,99456.66
2018-07-20T13:43:44.330Z,99455.64
2018-07-20T13:46:12.944Z,99453.63
2018-07-20T13:48:41.483Z,99460.80
2018-07-20T13:51:10.139Z,99454.70
2018-07-20T13:53:38.824Z,99452.50
2018-07-20T13:56:07.369Z,99449.98
2018-07-20T13:58:35.896Z,99445.06
2018-07-20T14:01:04.451Z,99443.44
2018-07-20T14:03:32.916Z,99448.02
2018-07-20T14:06:01.527Z,99450.92
2018-07-20T14:08:30.068Z,99443.46
2018-07-20T14:10:58.577Z,99435.06
2018-07-20T14:13:27.023Z,99428.47
2018-07-20T14:15:55.674Z,99419.95
2018-07-20T14:18:24.249Z,99422.29
2018-07-20T14:20:52.835Z,99424.22
2018-07-20T14:23:21.443Z,99420.74
2018-07-20T14:25:50.029Z,99420.38
2018-07-20T14:28:18.563Z,99419.19
2018-07-20T14:30:47.189Z,99413.27
2018-07-20T14:33:15.782Z,99419.09
2018-07-20T14:35:44.638Z,99406.27
2018-07-20T14:38:13.412Z,99406.91
2018-07-20T14:40:42.023Z,99399.16
2018-07-20T14:43:10.950Z,99402.30
2018-07-20T14:45:40.319Z,99389.77
2018-07-20T14:48:08.896Z,99395.02
2018-07-20T14:50:37.469Z,99392.58
2018-07-20T14:53:06.042Z,99387.77
2018-07-20T14:55:34.691Z,99387.71
2018-07-20T14:58:03.326Z,99390.50
2018-07-20T15:00:32.164Z,99384.97
2018-07-20T15:03:00.797Z,99377.33
2018-07-20T15:05:29.586Z,99379.76
2018-07-20T15:07:58.186Z,99380.33
2018-07-20T15:10:26.805Z,99371.42
2018-07-20T15:12:55.354Z,99365.41
2018-07-20T15:15:23.876Z,99370.94
2018-07-20T15:17:52.558Z,99368.27
2018-07-20T15:20:21.146Z,99364.56
2018-07-20T15:22:49.731Z,99364.97
2018-07-20T15:25:18.272Z,99362.66
2018-07-20T15:27:46.744Z,99366.11
2018-07-20T15:30:15.290Z,99359.75
2018-07-20T15:32:43.862Z,99368.36
2018-07-20T15:35:12.397Z,99363.33
2018-07-20T15:37:41.018Z,99362.88
2018-07-20T15:40:09.599Z,99359.68
2018-07-20T15:42:38.075Z,99355.44
2018-07-20T15:45:06.834Z,99355.81
2018-07-20T15:47:35.532Z,99349.89
2018-07-20T15:50:04.166Z,99353.32
2018-07-20T15:55:01.304Z,99352.55
2018-07-20T15:57:30.156Z,99346.59
2018-07-20T15:59:58.971Z,99347.13
2018-07-20T16:02:27.389Z,99349.39
2018-07-20T16:04:56.118Z,99352.97
2018-07-20T16:07:24.641Z,99348.03
2018-07-20T16:09:53.169Z,99342.97
2018-07-20T16:12:21.803Z,99240.71
2018-07-20T16:14:50.377Z,99349.44
2018-07-20T16:17:19.037Z,99340.66
2018-07-20T16:19:47.692Z,99338.64
2018-07-20T16:22:16.206Z,99344.44
2018-07-20T16:24:44.802Z,99343.09
2018-07-20T16:27:13.341Z,99346.50
2018-07-20T16:29:41.851Z,99341.09
2018-07-20T16:32:10.476Z,99343.34
2018-07-20T16:34:40.128Z,99337.44
2018-07-20T16:37:08.922Z,99335.96
2018-07-20T16:39:39.800Z,99327.28
2018-07-20T16:42:09.265Z,99325.77
2018-07-20T16:44:38.190Z,99328.00
2018-07-20T16:47:07.178Z,99327.85
2018-07-20T16:49:35.871Z,99329.89
2018-07-20T16:52:04.777Z,99325.31
2018-07-20T16:54:33.305Z,99317.33
2018-07-20T16:57:01.857Z,99320.41
2018-07-20T16:59:30.427Z,99320.05
2018-07-20T17:01:59.002Z,99311.08
2018-07-20T17:04:27.591Z,99313.63
2018-07-20T17:06:56.375Z,99306.83
2018-07-20T17:09:25.002Z,99307.70
2018-07-20T17:11:53.675Z,99303.95
2018-07-20T17:14:22.291Z,99298.88
2018-07-20T17:16:51.156Z,99289.88
2018-07-20T17:19:19.708Z,99290.40
2018-07-20T17:21:48.453Z,99287.36
2018-07-20T17:24:17.024Z,99284.31
2018-07-20T17:26:45.593Z,99277.84
2018-07-20T17:29:14.192Z,99282.92
2018-07-20T17:31:43.491Z,99283.10
2018-07-20T17:34:12.036Z,99284.80
2018-07-20T17:36:40.982Z,99289.37
2018-07-20T17:39:11.041Z,99292.42
2018-07-20T17:41:41.759Z,99293.74
2018-07-20T17:44:10.950Z,99294.04
2018-07-20T17:46:39.492Z,99291.00
2018-07-20T17:49:09.355Z,99289.11
2018-07-20T17:51:38.173Z,99288.89
2018-07-20T17:54:06.797Z,99295.45
2018-07-20T17:56:35.815Z,99294.89
2018-07-20T17:59:04.608Z,99297.91
2018-07-20T18:01:33.256Z,99304.33
2018-07-20T18:04:02.165Z,99300.70
2018-07-20T18:06:31.040Z,99299.31
2018-07-20T18:08:59.641Z,99292.98
2018-07-20T18:11:28.640Z,99292.59
2018-07-20T18:13:57.264Z,99291.38
2018-07-20T18:16:25.787Z,99284.56
2018-07-20T18:18:54.361Z,99293.81
2018-07-20T18:21:22.993Z,99291.20
2018-07-20T18:23:51.562Z,99297.75
2018-07-20T18:26:20.072Z,99300.87
2018-07-20T18:28:48.516Z,99311.95
2018-07-20T18:31:17.151Z,99312.37
2018-07-20T18:33:46.145Z,99314.56
2018-07-20T18:36:14.991Z,99313.16
2018-07-20T18:38:43.996Z,99306.52
2018-07-20T18:41:12.685Z,99310.02
2018-07-20T18:43:41.431Z,99302.04
2018-07-20T18:46:10.085Z,99319.72
2018-07-20T18:48:38.771Z,99314.56
2018-07-20T18:51:08.417Z,99318.21
2018-07-20T18:53:37.176Z,99324.91
2018-07-20T18:56:05.826Z,99322.28
2018-07-20T18:58:34.467Z,99328.69
2018-07-20T19:01:03.329Z,99330.97
2018-07-20T19:03:32.008Z,99324.67
2018-07-20T19:06:00.705Z,99330.03
2018-07-20T19:08:29.603Z,99329.14
2018-07-20T19:10:58.372Z,99333.46
2018-07-20T19:13:27.332Z,99336.44
2018-07-20T19:15:56.314Z,99344.11
2018-07-20T19:18:25.800Z,99351.92
2018-07-20T19:20:54.747Z,99355.06
2018-07-20T19:23:23.361Z,99361.38
2018-07-20T19:25:51.937Z,99364.17
2018-07-20T19:28:20.474Z,99367.31
2018-07-20T19:30:49.035Z,99371.31
2018-07-20T19:33:17.678Z,99367.83
2018-07-20T19:35:46.448Z,99375.18
2018-07-20T19:38:15.192Z,99371.70
2018-07-20T19:40:43.779Z,99375.66
2018-07-20T19:43:12.456Z,99383.97
2018-07-20T19:45:41.461Z,99393.96
2018-07-20T19:48:10.789Z,99397.22
2018-07-20T19:50:39.816Z,99404.55
2018-07-20T19:53:08.993Z,99396.53
2018-07-20T19:55:38.461Z,99399.42
2018-07-20T19:58:07.815Z,99395.09
2018-07-20T20:00:36.598Z,99395.30
2018-07-20T20:03:06.233Z,99396.48
2018-07-20T20:05:34.865Z,99395.30
2018-07-20T20:08:03.598Z,99394.44
2018-07-20T20:10:32.445Z,99380.73
2018-07-20T20:13:01.187Z,99381.56
2018-07-20T20:15:30.050Z,99370.78
2018-07-20T20:17:58.853Z,99370.50
2018-07-20T20:20:27.541Z,99371.92
2018-07-20T20:22:56.127Z,99371.50
2018-07-20T20:25:24.693Z,99368.55
2018-07-20T20:27:53.413Z,99382.91
2018-07-20T20:30:22.068Z,99376.34
2018-07-20T20:32:50.612Z,99369.16
2018-07-20T20:35:19.271Z,99362.83
2018-07-20T20:37:48.004Z,99363.11
2018-07-20T20:40:16.553Z,99362.98
2018-07-20T20:42:45.116Z,99365.09
2018-07-20T20:45:13.765Z,99360.85
2018-07-20T20:47:42.349Z,99367.09
2018-07-20T20:50:10.922Z,99354.92
2018-07-20T20:52:39.505Z,99357.76
2018-07-20T20:55:08.265Z,99353.52
2018-07-20T20:57:36.959Z,99360.89
2018-07-20T21:00:06.255Z,99362.28
2018-07-20T21:02:34.911Z,99362.64
2018-07-20T21:05:03.738Z,99355.80
2018-07-20T21:07:32.315Z,99357.52
2018-07-20T21:10:00.938Z,99358.17
2018-07-20T21:12:29.528Z,99360.76
2018-07-20T21:14:58.144Z,99364.92
2018-07-20T21:17:26.729Z,99361.75
2018-07-20T21:19:55.361Z,99356.75
2018-07-20T21:22:23.884Z,99354.33
2018-07-20T21:24:52.468Z,99354.59
2018-07-20T21:27:21.039Z,99359.35
2018-07-20T21:29:49.632Z,99368.14
2018-07-20T21:32:18.249Z,99368.87
2018-07-20T21:34:46.861Z,99366.19
2018-07-20T21:37:15.373Z,99365.10
2018-07-20T21:39:44.027Z,99370.11
2018-07-20T21:42:12.544Z,99365.33
2018-07-20T21:44:41.153Z,99364.58
2018-07-20T21:47:09.714Z,99364.33
2018-07-20T21:49:38.334Z,99364.83
2018-07-20T21:52:06.827Z,99362.77
2018-07-20T21:54:35.343Z,99358.38
2018-07-20T21:57:03.867Z,99352.52
2018-07-20T21:59:32.585Z,99366.19
2018-07-20T22:02:01.222Z,99367.16
2018-07-20T22:04:29.803Z,99367.02
2018-07-20T22:06:58.348Z,99362.53
2018-07-20T22:09:26.864Z,99359.13
2018-07-20T22:11:55.358Z,99363.00
2018-07-20T22:14:23.842Z,99357.75
2018-07-20T22:16:52.374Z,99359.70
2018-07-20T22:19:20.888Z,99364.71
2018-07-20T22:21:49.419Z,99361.16
2018-07-20T22:24:18.096Z,99363.73
2018-07-20T22:26:46.654Z,99363.98
2018-07-20T22:29:15.190Z,99362.75
2018-07-20T22:31:43.736Z,99363.47
2018-07-20T22:34:12.315Z,99370.38
2018-07-20T22:36:40.952Z,99365.38
2018-07-20T22:39:11.388Z,99356.72
2018-07-20T22:41:39.932Z,99352.33
2018-07-20T22:44:08.414Z,99350.98
2018-07-20T22:46:36.980Z,99352.70
2018-07-20T22:49:05.631Z,99353.06
2018-07-20T22:51:34.283Z,99351.11
2018-07-20T22:54:02.894Z,99347.09
2018-07-20T22:56:31.527Z,99351.11
2018-07-20T22:59:00.137Z,99348.80
2018-07-20T23:01:28.742Z,99343.06
2018-07-20T23:03:57.291Z,99342.59
2018-07-20T23:06:25.900Z,99341.25
2018-07-20T23:08:54.403Z,99346.62
2018-07-20T23:11:22.996Z,99337.81
2018-07-20T23:13:51.550Z,99330.28
2018-07-20T23:16:20.146Z,99328.94
2018-07-20T23:18:48.672Z,99324.05
2018-07-20T23:21:17.216Z,99325.17
2018-07-20T23:23:45.890Z,99326.11
2018-07-20T23:26:14.531Z,99325.02
2018-07-20T23:28:43.051Z,99318.20
2018-07-20T23:31:11.640Z,99318.92
2018-07-20T23:33:40.203Z,99318.55
2018-07-20T23:36:08.828Z,99314.63
2018-07-20T23:38:37.448Z,99311.58
2018-07-20T23:41:06.203Z,99315.69
2018-07-20T23:43:34.719Z,99317.98
2018-07-20T23:46:03.316Z,99308.20
2018-07-20T23:48:31.875Z,99312.78
2018-07-20T23:51:00.537Z,99316.44
2018-07-20T23:53:29.104Z,99320.19
2018-07-20T23:55:57.929Z,99330.33
2018-07-20T23:58:26.620Z,99338.98
